• Join FlightAware (Why Join?)
  • Login
  • US Flag 
03:50PM EDT


 

Airport Tracker/Info


-or-


 

Live Flight TrackerFlight Track Log ✈ AWE2740 ✈ 04-May-2013 ✈ KCLT - KMHT

Flight Track Log - Related Links

Times and Time Zones

All times are in EDT time to prevent confusion due to time zone crossing. See the AWE2740 flight status page for this flight to view local times or setup timezone preferences in your user account.

Time Position Orientation Groundspeed Altitude Reporting Facility
EDT Latitude Longitude Course Direction KTS MPH feet Rate Location/Type
08:20PM 35.2369 -80.9417 72° East 177 204 1,600  Level Atlanta Center
08:20PM 35.2700 -80.9275 19° North 186 214 3,100 2,220 Climbing Atlanta Center
08:22PM 35.2986 -80.8297 70° East 237 273 6,500 1,920 Climbing Atlanta Center
08:23PM 35.2996 -80.4955 30° Northeast  Level FlightAware Approximate
08:23PM 35.2964 -80.7458 92° East 251 289 8,000  Level Atlanta Center
08:24PM 35.3600 -80.3658 72° East  Level FlightAware Approximate
08:24PM 35.2919 -80.6569 93° East 258 297 9,800  Level Atlanta Center
08:25PM 35.4019 -80.2065 72° East  Level FlightAware Approximate
08:25PM 35.2914 -80.5578 90° East 273 314 11,600  Level Atlanta Center
08:27PM 35.3764 -80.3097 67° East 351 404 16,000 1,860 Climbing Washington Center
08:28PM 35.4167 -80.1897 68° East 370 426 17,800 1,680 Climbing Washington Center
08:29PM 35.4506 -80.0669 71° East 378 435 19,500 1,620 Climbing Washington Center
08:30PM 35.4819 -79.9486 72° East 384 442 21,100 1,560 Climbing Washington Center
08:31PM 35.5181 -79.8153 72° East 391 450 22,600 1,440 Climbing Washington Center
08:32PM 35.5522 -79.6767 73° East 403 464 24,000 1,440 Climbing Washington Center
08:33PM 35.5928 -79.5206 72° East 428 493 25,600 1,320 Climbing Washington Center
08:34PM 35.6322 -79.3972 68° East 433 498 26,600 1,140 Climbing Washington Center
08:35PM 35.6847 -79.2567 65° Northeast 433 498 27,900 1,260 Climbing Washington Center
08:36PM 35.7411 -79.1183 63° Northeast 443 510 29,200 1,440 Climbing Washington Center
08:37PM 35.8039 -78.9675 63° Northeast 448 516 30,800 1,260 Climbing Washington Center
08:38PM 35.8578 -78.8289 64° Northeast 443 510 31,800 1,200 Climbing Washington Center
08:39PM 35.9175 -78.6981 61° Northeast 435 501 33,300 1,260 Climbing Washington Center
08:40PM 35.9814 -78.5669 59° Northeast 430 495 34,300 840 Climbing Washington Center
08:41PM 36.0450 -78.4383 59° Northeast 430 495 35,000 300 Climbing Washington Center
08:42PM 36.1064 -78.3069 60° Northeast 435 501 35,000 240 Level Washington Center
08:43PM 36.1722 -78.1703 59° Northeast 445 512 35,500 900 Climbing Washington Center
08:44PM 36.2356 -78.0358 60° Northeast 445 512 36,900 720 Climbing Washington Center
08:45PM 36.3006 -77.9039 59° Northeast 445 512 37,000  Climbing Washington Center
08:46PM 36.3636 -77.7689 60° Northeast 445 512 37,000  Level Washington Center
08:47PM 36.4431 -77.6550 49° Northeast 445 512 37,000  Level Washington Center
08:48PM 36.5386 -77.5489 42° Northeast 450 518 37,000  Level Washington Center
08:49PM 36.6342 -77.4453 41° Northeast 450 518 37,000  Level Washington Center
08:50PM 36.7253 -77.3436 42° Northeast 445 512 37,000  Level Washington Center
08:51PM 36.8208 -77.2394 41° Northeast 445 512 37,000  Level Washington Center
08:52PM 36.9161 -77.1350 41° Northeast 445 512 37,000  Level Washington Center
08:53PM 37.0092 -77.0303 42° Northeast 445 512 37,000  Level Washington Center
08:54PM 37.1042 -76.9253 41° Northeast 445 512 37,000  Level Washington Center
08:55PM 37.1886 -76.8275 43° Northeast 452 520 37,000  Level Washington Center
08:56PM 37.2836 -76.7222 41° Northeast 452 520 37,000  Level Washington Center
08:57PM 37.3783 -76.6189 41° Northeast 452 520 37,000  Level Washington Center
08:58PM 37.4731 -76.5103 42° Northeast 452 520 37,000  Level Washington Center
08:59PM 37.5656 -76.4042 42° Northeast 447 514 37,000  Level Washington Center
09:00PM 37.6558 -76.3028 42° Northeast 447 514 37,000  Level Washington Center
09:01PM 37.7483 -76.1983 42° Northeast 447 514 37,000  Level Washington Center
09:02PM 37.8383 -76.0939 42° Northeast 442 509 37,000  Level Washington Center
09:03PM 37.9286 -75.9919 42° Northeast 437 503 37,000  Level Washington Center
09:04PM 38.0289 -75.8739 43° Northeast 437 503 37,000  Level Washington Center
09:05PM 38.1189 -75.7711 42° Northeast 437 503 37,000  Level Washington Center
09:06PM 38.2086 -75.6658 43° Northeast 437 503 37,000  Level Washington Center
09:07PM 38.3025 -75.5600 41° Northeast 437 503 37,000  Level Washington Center
09:08PM 38.3961 -75.4831 33° Northeast 442 509 37,000  Level Washington Center
09:09PM 38.5150 -75.4406 16° North 436 502 37,000  Level Washington Center
09:10PM 38.6317 -75.3950 17° North 436 502 37,000  Level Washington Center
09:11PM 38.7483 -75.3442 19° North 436 502 37,000  Level Washington Center
09:12PM 38.8567 -75.2717 28° Northeast 441 507 37,000  Level Washington Center
09:13PM 38.9606 -75.1831 34° Northeast 436 502 37,000  Level Washington Center
09:14PM 39.0644 -75.0969 33° Northeast 436 502 37,000  Level Washington Center
09:15PM 39.1661 -75.0133 33° Northeast 442 509 37,000  Level Washington Center
09:16PM 39.2700 -74.9267 33° Northeast 437 503 37,000  Level Washington Center
09:17PM 39.3714 -74.8425 33° Northeast 437 503 37,000  Level Washington Center
09:19PM 39.5969 -74.6611 32° Northeast 461 531 37,000  Level New York Center
09:20PM 39.7036 -74.5889 28° Northeast 445 512 37,000  Level New York Center
09:21PM 39.8214 -74.5603 11° North 427 491 37,000  Level New York Center
09:22PM 39.9453 -74.5289 11° North 427 491 37,000  Level New York Center
09:23PM 40.0672 -74.5003 10° North 437 503 37,000  Level New York Center
09:24PM 40.1744 -74.4708 12° North 437 503 37,000  Level New York Center
09:25PM 40.2942 -74.4392 11° North 432 497 37,000  Level New York Center
09:26PM 40.4161 -74.4075 11° North 432 497 37,000  Level New York Center
09:27PM 40.5356 -74.3783 11° North 432 497 37,000  Level New York Center
09:29PM 40.7842 -74.3233 10° North 450 518 37,000  Level Boston Center
09:30PM 40.9033 -74.2911 12° North 450 518 37,000  Level Boston Center
09:31PM 41.0206 -74.2614 11° North 439 505 37,000  Level Boston Center
09:32PM 41.1358 -74.2314 11° North 428 493 37,000  Level Boston Center
09:33PM 41.2550 -74.2017 11° North 428 493 37,000  Level Boston Center
09:34PM 41.3681 -74.1661 13° North 423 487 37,000  Level Boston Center
09:35PM 41.4853 -74.1358 11° North 423 487 37,000 -60 Level Boston Center
09:36PM 41.6086 -74.1058 10° North 435 501 36,900 -900 Descending Boston Center
09:37PM 41.7364 -74.0731 11° North 430 495 35,200 -2,100 Descending Boston Center
09:38PM 41.8261 -74.0503 11° North 423 487 32,700 -3,060 Descending Boston Center
09:39PM 41.9622 -74.0175 10° North 417 480 29,100 -2,880 Descending Boston Center
09:40PM 42.0772 -73.9842 12° North 412 474 27,000 -1,140 Descending Boston Center
09:41PM 42.1700 -73.9050 32° Northeast 399 459 26,900 -720 Descending Boston Center
09:42PM 42.2258 -73.7661 61° Northeast 383 441 25,600 -1,440 Descending Boston Center
09:43PM 42.2817 -73.6214 62° Northeast 414 476 24,100 -1,440 Descending Boston Center
09:44PM 42.3244 -73.5100 63° Northeast 409 471 22,800 -1,560 Descending Boston Center
09:45PM 42.3842 -73.3678 60° Northeast 380 437 21,000 -1,620 Descending Boston Center
09:46PM 42.4353 -73.2278 64° Northeast 387 445 19,600 -1,020 Descending Boston Center
09:47PM 42.4839 -73.1017 62° Northeast 387 445 19,000 -300 Descending Boston Center
09:48PM 42.5367 -72.9642 62° Northeast 392 451 19,000  Level Boston Center
09:49PM 42.5769 -72.8406 66° East 397 457 19,000 -180 Level Boston Center
09:50PM 42.6169 -72.7025 68° East 391 450 18,700 -1,020 Descending Boston Center
09:51PM 42.6525 -72.5644 71° East 391 450 17,000 -1,920 Descending Boston Center
09:52PM 42.6900 -72.4317 69° East 386 444 14,900 -2,100 Descending Boston Center
09:53PM 42.7233 -72.3044 70° East 369 425 12,900 -1,800 Descending Boston Center
09:54PM 42.7522 -72.1856 72° East 338 389 11,300 -1,440 Descending Boston Center
09:55PM 42.7833 -72.0722 69° East 302 348 10,100 -1,200 Descending Boston Center
09:56PM 42.8058 -71.9872 70° East 269 310 8,900 -600 Descending Boston Center
09:57PM 42.8325 -71.8881 70° East 255 293 9,000 -480 Climbing Boston Center
09:58PM 42.8656 -71.8028 62° Northeast 260 299 8,000 -1,380 Descending Boston Center
09:59PM 42.9044 -71.7231 56° Northeast 241 277 6,300 -1,980 Descending Boston Center
10:00PM 42.9333 -71.6603 58° Northeast 223 257 4,100 -1,680 Descending Boston Center
10:01PM 42.9831 -71.6086 37° Northeast 206 237 3,000 -600 Descending Boston Center
10:02PM 43.0056 -71.5514 62° Northeast 185 213 3,000 -600 Level Boston Center
10:03PM 43.0092 -71.4917 85° East 150 173 1,900 -900 Descending Boston Center
10:04PM 42.9819 -71.4667 146° Southeast 126 145 1,200 -780 Descending Boston Center
10:05PM 42.9461 -71.4417 153° Southeast 138 159 400 -840 Descending Boston Center